Time;durP1;ratioP1;P1;durP2;ratioP2;P2;SDS_P1;SDS_P2;PMS_P1;PMS_P2;Temp;Humidity;BMP_temperature;BMP_pressure;BME280_temperature;BME280_humidity;BME280_pressure;Samples;Min_cycle;Max_cycle;Signal;HPM_P1;HPM_P2
2021/03/09 06:00:49;;;;;;;1.15;1.15;;;;;;;;;;5084286;28;20354;-58
2021/03/09 06:03:15;;;;;;;0.40;0.40;;;;;;;;;;5072865;28;20032;-60
2021/03/09 06:05:41;;;;;;;0.28;0.28;;;;;;;;;;5072176;28;20029;-61
2021/03/09 06:08:08;;;;;;;0.30;0.30;;;;;;;;;;5074621;28;20383;-60
2021/03/09 06:10:34;;;;;;;0.30;0.30;;;;;;;;;;5073053;28;20523;-62
2021/03/09 06:13:00;;;;;;;0.30;0.30;;;;;;;;;;5072293;28;20025;-61
2021/03/09 06:15:26;;;;;;;0.30;0.30;;;;;;;;;;5086787;28;20020;-61
2021/03/09 06:17:54;;;;;;;0.30;0.30;;;;;;;;;;5084666;28;20086;-61
2021/03/09 06:20:24;;;;;;;0.40;0.40;;;;;;;;;;5076034;28;20025;-61
2021/03/09 06:22:52;;;;;;;0.55;0.55;;;;;;;;;;5074578;28;20397;-61
2021/03/09 06:25:19;;;;;;;0.40;0.40;;;;;;;;;;5072242;28;20099;-66
2021/03/09 06:27:46;;;;;;;0.30;0.30;;;;;;;;;;5068646;28;20025;-61
2021/03/09 06:30:14;;;;;;;0.40;0.40;;;;;;;;;;5072309;28;20506;-60
2021/03/09 06:32:41;;;;;;;0.40;0.40;;;;;;;;;;5072772;28;20021;-60
2021/03/09 06:35:08;;;;;;;0.30;0.30;;;;;;;;;;5071603;28;20025;-61
2021/03/09 06:37:34;;;;;;;3.10;2.08;;;;;;;;;;5074673;28;20024;-62
2021/03/09 06:40:06;;;;;;;0.80;0.80;;;;;;;;;;5069251;28;20017;-60
2021/03/09 06:42:39;;;;;;;0.98;0.98;;;;;;;;;;5070191;28;20021;-60
2021/03/09 06:45:09;;;;;;;0.50;0.50;;;;;;;;;;5071850;28;20071;-60
2021/03/09 06:47:36;;;;;;;0.35;0.35;;;;;;;;;;5074111;28;20029;-61
2021/03/09 06:50:03;;;;;;;7.75;2.92;;;;;;;;;;5092517;28;20092;-60
2021/03/09 06:52:29;;;;;;;1.10;1.10;;;;;;;;;;5082079;28;20113;-61
2021/03/09 06:54:56;;;;;;;0.50;0.50;;;;;;;;;;5067993;28;20474;-61
2021/03/09 06:57:22;;;;;;;0.40;0.40;;;;;;;;;;5069970;28;20033;-63
2021/03/09 06:59:49;;;;;;;0.30;0.30;;;;;;;;;;5081062;28;20437;-61
2021/03/09 07:02:17;;;;;;;0.63;0.63;;;;;;;;;;5069270;28;20466;-62
2021/03/09 07:04:44;;;;;;;0.43;0.43;;;;;;;;;;5069090;28;20028;-62
2021/03/09 07:07:11;;;;;;;0.38;0.38;;;;;;;;;;5073863;28;20031;-62
2021/03/09 07:09:38;;;;;;;0.60;0.60;;;;;;;;;;5079906;28;20020;-61
2021/03/09 07:12:08;;;;;;;0.73;0.73;;;;;;;;;;5080737;28;20470;-59
2021/03/09 07:14:35;;;;;;;1.20;1.20;;;;;;;;;;5075790;28;20056;-60
2021/03/09 07:17:02;;;;;;;2.38;1.58;;;;;;;;;;5062757;28;20422;-60
2021/03/09 07:19:36;;;;;;;0.93;0.93;;;;;;;;;;5066146;28;20044;-61
2021/03/09 07:22:06;;;;;;;2.85;2.72;;;;;;;;;;5054955;28;20029;-60
2021/03/09 07:24:33;;;;;;;3.85;3.65;;;;;;;;;;5055221;28;20099;-59
2021/03/09 07:27:11;;;;;;;2.00;1.90;;;;;;;;;;5068679;28;20056;-60
2021/03/09 07:29:39;;;;;;;0.30;0.30;;;;;;;;;;5065730;28;20091;-64
2021/03/09 07:32:07;;;;;;;0.40;0.40;;;;;;;;;;5063596;28;20411;-61
2021/03/09 07:34:34;;;;;;;0.50;0.50;;;;;;;;;;5064110;28;20047;-59
2021/03/09 07:37:01;;;;;;;1.55;1.45;;;;;;;;;;5054098;28;20017;-60
2021/03/09 07:39:28;;;;;;;7.65;5.78;;;;;;;;;;5059985;28;20872;-59
2021/03/09 07:41:54;;;;;;;0.32;0.32;;;;;;;;;;5057203;28;20029;-59
2021/03/09 07:44:21;;;;;;;0.30;0.30;;;;;;;;;;5057750;28;20493;-59
2021/03/09 07:46:47;;;;;;;0.65;0.65;;;;;;;;;;5057280;28;20014;-61
2021/03/09 07:49:14;;;;;;;0.65;0.65;;;;;;;;;;5056943;28;20024;-60
2021/03/09 07:52:00;;;;;;;0.30;0.30;;;;;;;;;;5063153;28;20504;-60
2021/03/09 07:54:26;;;;;;;0.40;0.40;;;;;;;;;;5064258;28;20048;-59
2021/03/09 07:57:11;;;;;;;0.38;0.38;;;;;;;;;;5059980;28;20028;-60
2021/03/09 07:59:37;;;;;;;0.40;0.40;;;;;;;;;;5057420;28;20049;-62
2021/03/09 08:02:03;;;;;;;0.20;0.20;;;;;;;;;;5059482;28;20030;-60
2021/03/09 08:04:29;;;;;;;0.30;0.30;;;;;;;;;;5062376;28;20028;-61
2021/03/09 08:06:55;;;;;;;0.35;0.35;;;;;;;;;;5053731;28;20149;-60
2021/03/09 08:09:35;;;;;;;0.30;0.30;;;;;;;;;;5067436;28;20033;-59
2021/03/09 08:12:01;;;;;;;0.40;0.40;;;;;;;;;;5055001;28;20065;-57
2021/03/09 08:14:28;;;;;;;0.30;0.30;;;;;;;;;;5056415;28;20055;-59
2021/03/09 08:16:54;;;;;;;11.48;10.85;;;;;;;;;;5066579;28;20060;-57
2021/03/09 08:19:26;;;;;;;0.20;0.20;;;;;;;;;;5068206;28;20024;-60
2021/03/09 08:21:55;;;;;;;0.30;0.30;;;;;;;;;;5053200;28;20124;-58
2021/03/09 08:24:40;;;;;;;0.98;0.95;;;;;;;;;;5054247;28;20025;-58
2021/03/09 08:27:26;;;;;;;0.57;0.57;;;;;;;;;;5055850;28;20025;-58
2021/03/09 08:29:52;;;;;;;1.98;1.83;;;;;;;;;;5055044;28;20041;-59
2021/03/09 08:32:24;;;;;;;1.45;1.00;;;;;;;;;;5056353;28;20029;-58
2021/03/09 08:34:51;;;;;;;0.30;0.30;;;;;;;;;;5057113;28;20081;-57
2021/03/09 08:37:32;;;;;;;1.30;1.23;;;;;;;;;;5067674;28;20027;-59
2021/03/09 08:40:09;;;;;;;13.40;9.55;;;;;;;;;;5053437;28;20021;-58
2021/03/09 08:42:53;;;;;;;4.45;3.88;;;;;;;;;;5069991;28;20254;-58
2021/03/09 08:45:32;;;;;;;10.55;6.55;;;;;;;;;;5067387;28;20513;-62
2021/03/09 08:47:58;;;;;;;0.50;0.50;;;;;;;;;;5066957;28;20107;-59
2021/03/09 08:50:41;;;;;;;3.17;2.88;;;;;;;;;;5067601;28;20359;-60
2021/03/09 08:53:07;;;;;;;2.25;2.05;;;;;;;;;;5061413;28;20082;-58
2021/03/09 08:55:33;;;;;;;3.05;2.75;;;;;;;;;;5056692;28;20501;-61
2021/03/09 08:58:06;;;;;;;5.97;5.55;;;;;;;;;;5066855;28;20429;-60
2021/03/09 09:00:32;;;;;;;2.15;1.95;;;;;;;;;;5052845;28;20552;-60
2021/03/09 09:02:58;;;;;;;0.38;0.38;;;;;;;;;;5068023;28;20036;-61
2021/03/09 09:05:29;;;;;;;4.28;1.80;;;;;;;;;;5062792;28;20252;-64
2021/03/09 09:07:55;;;;;;;0.20;0.20;;;;;;;;;;5062737;28;20064;-60
2021/03/09 09:10:23;;;;;;;0.55;0.55;;;;;;;;;;5055239;28;20040;-61
2021/03/09 09:12:50;;;;;;;3.97;3.67;;;;;;;;;;5052612;28;20384;-60
2021/03/09 09:15:26;;;;;;;0.57;0.57;;;;;;;;;;5066200;28;20398;-61
2021/03/09 09:17:52;;;;;;;1.00;1.00;;;;;;;;;;5069492;28;20536;-64
2021/03/09 09:20:23;;;;;;;2.55;2.45;;;;;;;;;;5067412;28;20518;-62
2021/03/09 09:22:51;;;;;;;3.50;2.38;;;;;;;;;;5067126;28;20021;-61
2021/03/09 09:25:18;;;;;;;2.03;1.65;;;;;;;;;;5067643;28;20025;-60
2021/03/09 09:27:46;;;;;;;1.45;0.73;;;;;;;;;;5067884;28;20031;-63
2021/03/09 09:30:13;;;;;;;2.78;1.02;;;;;;;;;;5069971;28;20063;-61
2021/03/09 09:32:43;;;;;;;2.72;2.53;;;;;;;;;;5067049;28;20436;-61
2021/03/09 09:35:10;;;;;;;0.20;0.20;;;;;;;;;;5067197;28;20561;-60
2021/03/09 09:37:38;;;;;;;0.40;0.40;;;;;;;;;;5067465;28;20047;-61
2021/03/09 09:40:04;;;;;;;0.90;0.85;;;;;;;;;;5067069;28;20524;-61
2021/03/09 09:42:30;;;;;;;0.85;0.75;;;;;;;;;;5068670;28;20021;-61
2021/03/09 09:44:57;;;;;;;1.55;1.55;;;;;;;;;;5068546;28;20539;-61
2021/03/09 09:47:24;;;;;;;0.20;0.20;;;;;;;;;;5067082;28;20115;-59
2021/03/09 09:49:50;;;;;;;2.78;1.48;;;;;;;;;;5066677;28;20082;-58
2021/03/09 09:52:20;;;;;;;14.45;5.55;;;;;;;;;;5066931;28;20028;-58
2021/03/09 09:54:55;;;;;;;0.90;0.90;;;;;;;;;;5066453;28;20021;-59
2021/03/09 09:57:22;;;;;;;0.17;0.17;;;;;;;;;;5067355;28;20465;-58
2021/03/09 09:59:49;;;;;;;1.10;0.60;;;;;;;;;;5066925;28;20119;-59
2021/03/09 10:02:19;;;;;;;1.10;1.10;;;;;;;;;;5066841;28;20398;-58
2021/03/09 10:04:45;;;;;;;1.33;1.23;;;;;;;;;;5066415;28;20052;-60
2021/03/09 10:07:16;;;;;;;1.10;0.77;;;;;;;;;;5068423;28;20040;-58
2021/03/09 10:09:58;;;;;;;7.40;1.55;;;;;;;;;;5067088;28;20115;-57
2021/03/09 10:12:35;;;;;;;0.77;0.77;;;;;;;;;;5065638;28;20059;-59
2021/03/09 10:15:01;;;;;;;9.38;5.30;;;;;;;;;;5068440;28;20413;-60
2021/03/09 10:17:27;;;;;;;0.20;0.20;;;;;;;;;;5064141;28;20099;-58
2021/03/09 10:19:54;;;;;;;0.10;0.10;;;;;;;;;;5066436;28;20028;-58
2021/03/09 10:22:21;;;;;;;0.70;0.68;;;;;;;;;;5064644;28;20025;-58
2021/03/09 10:24:48;;;;;;;1.70;1.48;;;;;;;;;;5067871;28;20033;-59
2021/03/09 10:27:15;;;;;;;0.68;0.68;;;;;;;;;;5050965;28;20226;-59
2021/03/09 10:29:41;;;;;;;3.30;1.15;;;;;;;;;;5063468;28;20064;-59
2021/03/09 10:32:13;;;;;;;0.88;0.57;;;;;;;;;;5061995;28;20031;-60
2021/03/09 10:34:41;;;;;;;5.25;0.95;;;;;;;;;;5054969;28;20036;-61
2021/03/09 10:37:17;;;;;;;1.27;0.68;;;;;;;;;;5056617;28;20013;-59
2021/03/09 10:39:56;;;;;;;2.05;1.40;;;;;;;;;;5055343;28;20032;-60
2021/03/09 10:42:39;;;;;;;0.20;0.20;;;;;;;;;;5069566;28;20418;-58
2021/03/09 10:45:18;;;;;;;1.17;1.17;;;;;;;;;;5064708;28;20103;-59
2021/03/09 10:47:48;;;;;;;3.17;2.17;;;;;;;;;;5067728;28;20033;-58
2021/03/09 10:50:14;;;;;;;0.60;0.38;;;;;;;;;;5063955;28;20037;-59
2021/03/09 10:52:41;;;;;;;1.45;0.82;;;;;;;;;;5067817;28;20033;-59
2021/03/09 10:55:07;;;;;;;3.10;1.20;;;;;;;;;;5056046;28;20490;-59
2021/03/09 10:57:33;;;;;;;0.10;0.10;;;;;;;;;;5056069;28;20025;-59
2021/03/09 10:59:59;;;;;;;8.15;3.25;;;;;;;;;;5066610;28;20136;-58
2021/03/09 11:02:25;;;;;;;6.32;3.20;;;;;;;;;;5061423;28;20036;-60
2021/03/09 11:04:52;;;;;;;5.13;2.38;;;;;;;;;;5057930;28;20087;-58
2021/03/09 11:07:18;;;;;;;5.15;2.60;;;;;;;;;;5056725;28;20067;-58
2021/03/09 11:09:44;;;;;;;0.25;0.25;;;;;;;;;;5053179;28;20098;-60
2021/03/09 11:12:10;;;;;;;0.20;0.20;;;;;;;;;;5057375;28;20032;-58
2021/03/09 11:14:36;;;;;;;2.85;2.67;;;;;;;;;;5067593;28;20020;-58
2021/03/09 11:17:02;;;;;;;4.18;2.65;;;;;;;;;;5064538;28;20029;-59
2021/03/09 11:19:28;;;;;;;3.33;2.42;;;;;;;;;;5058494;28;20032;-60
2021/03/09 11:21:54;;;;;;;0.75;0.75;;;;;;;;;;5055256;28;20112;-62
2021/03/09 11:24:21;;;;;;;3.40;1.75;;;;;;;;;;5068955;28;20489;-59
2021/03/09 11:26:47;;;;;;;2.65;1.90;;;;;;;;;;5067355;28;20028;-60
2021/03/09 11:29:14;;;;;;;4.70;2.35;;;;;;;;;;5062678;28;20072;-60
2021/03/09 11:31:41;;;;;;;0.45;0.35;;;;;;;;;;5057812;28;20451;-59
2021/03/09 11:34:07;;;;;;;5.00;2.47;;;;;;;;;;5054876;28;20016;-59
2021/03/09 11:36:33;;;;;;;0.65;0.65;;;;;;;;;;5055869;28;20536;-59
2021/03/09 11:38:59;;;;;;;4.50;1.55;;;;;;;;;;5064051;28;20024;-59
2021/03/09 11:41:26;;;;;;;4.80;2.30;;;;;;;;;;5057690;28;20056;-60
2021/03/09 11:43:52;;;;;;;0.55;0.55;;;;;;;;;;5057912;28;20060;-59
2021/03/09 11:46:18;;;;;;;7.60;3.72;;;;;;;;;;5057150;28;20047;-59
2021/03/09 11:48:44;;;;;;;1.15;0.75;;;;;;;;;;5053756;28;20052;-61
2021/03/09 11:51:13;;;;;;;5.75;3.45;;;;;;;;;;5057212;28;20053;-59
2021/03/09 11:53:39;;;;;;;4.30;3.97;;;;;;;;;;5059004;28;20108;-59
2021/03/09 11:56:05;;;;;;;1.45;1.35;;;;;;;;;;5063261;28;20394;-59
2021/03/09 11:58:31;;;;;;;6.53;3.13;;;;;;;;;;5055492;28;20036;-59
2021/03/09 12:00:58;;;;;;;6.18;3.33;;;;;;;;;;5069505;28;20032;-61
2021/03/09 12:03:24;;;;;;;1.80;1.63;;;;;;;;;;5068465;28;20511;-61
2021/03/09 12:05:50;;;;;;;2.53;2.33;;;;;;;;;;5065739;28;20543;-60
2021/03/09 12:08:16;;;;;;;5.10;4.13;;;;;;;;;;5065214;28;20027;-60
2021/03/09 12:10:43;;;;;;;0.52;0.52;;;;;;;;;;5065897;28;20504;-59
2021/03/09 12:13:09;;;;;;;8.00;3.65;;;;;;;;;;5054543;28;20040;-60
2021/03/09 12:15:35;;;;;;;3.30;1.75;;;;;;;;;;5068741;28;20389;-60
2021/03/09 12:18:02;;;;;;;0.95;0.95;;;;;;;;;;5056186;28;20025;-59
2021/03/09 12:20:28;;;;;;;2.97;2.67;;;;;;;;;;5062727;28;20493;-59
2021/03/09 12:22:54;;;;;;;4.63;1.55;;;;;;;;;;5067959;28;20074;-59
2021/03/09 12:25:21;;;;;;;4.22;2.85;;;;;;;;;;5070169;28;20029;-59
2021/03/09 12:27:47;;;;;;;3.65;2.03;;;;;;;;;;5064103;28;20016;-60
2021/03/09 12:30:13;;;;;;;2.83;2.60;;;;;;;;;;5069941;28;20119;-59
2021/03/09 12:32:39;;;;;;;1.00;0.82;;;;;;;;;;5067619;28;20116;-59
2021/03/09 12:35:06;;;;;;;7.43;4.45;;;;;;;;;;5067130;28;20082;-59
2021/03/09 12:37:32;;;;;;;4.45;2.85;;;;;;;;;;5067566;28;20024;-59
2021/03/09 12:39:59;;;;;;;0.10;0.10;;;;;;;;;;5068408;28;20560;-59
2021/03/09 12:42:25;;;;;;;2.08;1.00;;;;;;;;;;5067758;28;20020;-60
2021/03/09 12:44:51;;;;;;;2.78;0.85;;;;;;;;;;5066205;28;20028;-59
2021/03/09 12:47:17;;;;;;;1.65;1.55;;;;;;;;;;5060855;28;20119;-59
2021/03/09 12:49:44;;;;;;;1.58;1.48;;;;;;;;;;5064912;28;20032;-60
2021/03/09 12:52:10;;;;;;;1.98;1.70;;;;;;;;;;5067424;28;20465;-59
2021/03/09 12:54:36;;;;;;;4.60;3.20;;;;;;;;;;5063040;28;20509;-60
2021/03/09 12:57:02;;;;;;;1.15;1.02;;;;;;;;;;5069275;28;20024;-59
2021/03/09 12:59:29;;;;;;;0.10;0.10;;;;;;;;;;5067628;28;20044;-59
2021/03/09 13:01:55;;;;;;;2.38;1.42;;;;;;;;;;5068015;28;20016;-59
2021/03/09 13:04:21;;;;;;;1.77;1.67;;;;;;;;;;5067530;28;20089;-60
2021/03/09 13:06:47;;;;;;;0.50;0.50;;;;;;;;;;5066495;28;20557;-60
2021/03/09 13:09:13;;;;;;;0.10;0.10;;;;;;;;;;5067898;28;20029;-62
2021/03/09 13:11:39;;;;;;;5.53;2.90;;;;;;;;;;5067714;28;20099;-59
2021/03/09 13:14:05;;;;;;;0.68;0.68;;;;;;;;;;5067825;28;20036;-59
2021/03/09 13:16:32;;;;;;;0.10;0.10;;;;;;;;;;5067687;28;20021;-60
2021/03/09 13:18:58;;;;;;;4.63;2.20;;;;;;;;;;5069318;28;20040;-59
2021/03/09 13:21:24;;;;;;;0.10;0.10;;;;;;;;;;5065856;28;20040;-60
2021/03/09 13:23:51;;;;;;;0.10;0.10;;;;;;;;;;5067170;28;20039;-59
2021/03/09 13:26:17;;;;;;;6.28;2.92;;;;;;;;;;5064722;28;20397;-60
2021/03/09 13:28:44;;;;;;;0.82;0.82;;;;;;;;;;5067313;28;20016;-63
2021/03/09 13:31:11;;;;;;;0.10;0.10;;;;;;;;;;5067295;28;20151;-60
2021/03/09 13:33:37;;;;;;;6.55;1.52;;;;;;;;;;5067230;28;20032;-61
2021/03/09 13:36:04;;;;;;;0.30;0.30;;;;;;;;;;5067093;28;20025;-59
2021/03/09 13:38:30;;;;;;;1.73;1.17;;;;;;;;;;5067296;28;20438;-59
2021/03/09 13:40:56;;;;;;;0.15;0.15;;;;;;;;;;5067402;28;20402;-59
2021/03/09 13:43:23;;;;;;;0.47;0.47;;;;;;;;;;5067641;28;20466;-59
2021/03/09 13:45:49;;;;;;;1.05;1.05;;;;;;;;;;5065632;28;20028;-60
2021/03/09 13:48:15;;;;;;;0.10;0.10;;;;;;;;;;5070350;28;20052;-60
2021/03/09 13:50:41;;;;;;;1.10;1.00;;;;;;;;;;5067030;28;20386;-59
2021/03/09 13:53:07;;;;;;;2.20;1.30;;;;;;;;;;5067315;28;20046;-59
2021/03/09 13:55:33;;;;;;;0.10;0.10;;;;;;;;;;5067150;28;20096;-59
2021/03/09 13:58:00;;;;;;;0.63;0.63;;;;;;;;;;5067599;28;20033;-59
2021/03/09 14:00:26;;;;;;;3.50;1.10;;;;;;;;;;5068887;28;20586;-60
2021/03/09 14:02:52;;;;;;;0.43;0.43;;;;;;;;;;5068387;28;20048;-59
2021/03/09 14:05:18;;;;;;;0.10;0.10;;;;;;;;;;5065756;28;20020;-61
2021/03/09 14:07:44;;;;;;;0.85;0.85;;;;;;;;;;5066880;28;20110;-59
2021/03/09 14:10:11;;;;;;;7.03;2.17;;;;;;;;;;5067511;28;20382;-59
2021/03/09 14:12:37;;;;;;;1.20;0.80;;;;;;;;;;5072848;28;20375;-60
2021/03/09 14:15:04;;;;;;;1.85;0.77;;;;;;;;;;5074020;28;20021;-59
2021/03/09 14:17:32;;;;;;;0.65;0.40;;;;;;;;;;5072071;28;20236;-60
2021/03/09 14:20:00;;;;;;;1.45;1.08;;;;;;;;;;5072203;28;20056;-60
2021/03/09 14:22:26;;;;;;;0.52;0.52;;;;;;;;;;5072107;28;20048;-61
2021/03/09 14:24:53;;;;;;;0.10;0.10;;;;;;;;;;5072198;28;20025;-60
2021/03/09 14:27:19;;;;;;;0.22;0.22;;;;;;;;;;5073816;28;20115;-63
2021/03/09 14:29:45;;;;;;;0.68;0.60;;;;;;;;;;5071416;28;20028;-60
2021/03/09 14:32:11;;;;;;;0.10;0.10;;;;;;;;;;5069754;28;20035;-61
2021/03/09 14:34:37;;;;;;;12.02;1.00;;;;;;;;;;5072417;28;20413;-59
2021/03/09 14:37:03;;;;;;;0.77;0.55;;;;;;;;;;5067804;28;20028;-60
2021/03/09 14:39:30;;;;;;;0.32;0.32;;;;;;;;;;5068830;28;20046;-61
2021/03/09 14:41:56;;;;;;;6.60;4.45;;;;;;;;;;5066836;28;20063;-59
2021/03/09 14:44:22;;;;;;;4.80;0.80;;;;;;;;;;5063895;28;20037;-61
2021/03/09 14:46:48;;;;;;;2.33;1.60;;;;;;;;;;5067651;28;20044;-59
2021/03/09 14:49:14;;;;;;;4.00;2.20;;;;;;;;;;5066422;28;20124;-61
2021/03/09 14:51:41;;;;;;;3.50;2.03;;;;;;;;;;5052711;28;20036;-59
2021/03/09 14:54:07;;;;;;;0.30;0.30;;;;;;;;;;5055979;28;20028;-59
2021/03/09 14:56:33;;;;;;;9.30;5.03;;;;;;;;;;5064140;28;20025;-62
2021/03/09 14:58:59;;;;;;;4.13;0.98;;;;;;;;;;5064240;28;20567;-59
2021/03/09 15:01:25;;;;;;;6.57;3.83;;;;;;;;;;5065742;28;20494;-59
2021/03/09 15:03:56;;;;;;;7.43;2.85;;;;;;;;;;5066719;28;20489;-59
2021/03/09 15:06:22;;;;;;;4.47;2.45;;;;;;;;;;5066086;28;20039;-59
2021/03/09 15:08:48;;;;;;;5.50;2.60;;;;;;;;;;5064793;28;20032;-58
2021/03/09 15:11:14;;;;;;;1.02;0.75;;;;;;;;;;5068025;28;20086;-59
2021/03/09 15:13:40;;;;;;;2.08;1.70;;;;;;;;;;5067195;28;20052;-61
2021/03/09 15:16:06;;;;;;;2.53;1.40;;;;;;;;;;5055084;28;20499;-63
2021/03/09 15:18:32;;;;;;;0.10;0.10;;;;;;;;;;5068895;28;20017;-59
2021/03/09 15:20:58;;;;;;;2.80;2.60;;;;;;;;;;5069764;28;20472;-60
2021/03/09 15:23:24;;;;;;;2.38;2.28;;;;;;;;;;5070348;28;20029;-61
2021/03/09 15:25:51;;;;;;;13.43;3.65;;;;;;;;;;5065042;28;20040;-59
2021/03/09 15:28:17;;;;;;;4.72;2.80;;;;;;;;;;5066476;28;20501;-59
2021/03/09 15:30:43;;;;;;;2.92;2.08;;;;;;;;;;5070389;28;20028;-59
2021/03/09 15:33:09;;;;;;;6.60;2.90;;;;;;;;;;5068425;28;20516;-59
2021/03/09 15:35:35;;;;;;;9.52;5.03;;;;;;;;;;5059413;28;20044;-58
2021/03/09 15:38:02;;;;;;;2.33;2.15;;;;;;;;;;5057683;28;20021;-60
2021/03/09 15:40:28;;;;;;;6.30;2.65;;;;;;;;;;5060803;28;20032;-59
2021/03/09 15:42:55;;;;;;;0.45;0.38;;;;;;;;;;5068977;28;20016;-59
2021/03/09 15:45:21;;;;;;;8.82;4.28;;;;;;;;;;5057064;28;20465;-60
2021/03/09 15:47:48;;;;;;;6.78;3.65;;;;;;;;;;5078827;28;20042;-59
2021/03/09 15:50:14;;;;;;;6.47;4.07;;;;;;;;;;5060582;28;20142;-59
2021/03/09 15:52:41;;;;;;;4.22;2.85;;;;;;;;;;5073834;28;20028;-59
2021/03/09 15:55:08;;;;;;;0.85;0.85;;;;;;;;;;5076340;28;20024;-60
2021/03/09 15:57:34;;;;;;;9.98;5.75;;;;;;;;;;5081936;28;20079;-58
2021/03/09 16:00:00;;;;;;;2.42;2.15;;;;;;;;;;5084041;28;20080;-58
2021/03/09 16:02:27;;;;;;;4.82;3.55;;;;;;;;;;5062655;28;20063;-60
2021/03/09 16:04:53;;;;;;;1.27;1.27;;;;;;;;;;5058505;28;20039;-58
2021/03/09 16:07:20;;;;;;;0.93;0.93;;;;;;;;;;5068695;28;20099;-61
2021/03/09 16:09:47;;;;;;;1.10;1.00;;;;;;;;;;5066961;28;20028;-60
2021/03/09 16:12:13;;;;;;;2.17;2.03;;;;;;;;;;5073614;28;20020;-59
2021/03/09 16:14:39;;;;;;;0.85;0.85;;;;;;;;;;5069130;28;20036;-60
2021/03/09 16:17:05;;;;;;;2.95;1.92;;;;;;;;;;5067398;28;20569;-60
2021/03/09 16:19:31;;;;;;;2.97;2.30;;;;;;;;;;5075747;28;20036;-61
2021/03/09 16:21:57;;;;;;;1.85;0.90;;;;;;;;;;5080214;28;20163;-60
2021/03/09 16:24:24;;;;;;;0.98;0.93;;;;;;;;;;5055510;28;20091;-59
2021/03/09 16:26:50;;;;;;;1.45;1.08;;;;;;;;;;5057088;28;20013;-60
2021/03/09 16:29:16;;;;;;;0.73;0.40;;;;;;;;;;5061542;28;20036;-60
2021/03/09 16:31:42;;;;;;;2.05;1.95;;;;;;;;;;5066749;28;20036;-60
2021/03/09 16:34:08;;;;;;;1.00;1.00;;;;;;;;;;5066255;28;20067;-60
2021/03/09 16:36:34;;;;;;;1.38;1.27;;;;;;;;;;5068022;28;20017;-60
2021/03/09 16:39:01;;;;;;;2.08;1.63;;;;;;;;;;5065738;28;20087;-60
2021/03/09 16:41:27;;;;;;;1.27;1.27;;;;;;;;;;5064370;28;20024;-60
2021/03/09 16:43:54;;;;;;;1.50;1.38;;;;;;;;;;5067571;28;20104;-60
2021/03/09 16:46:20;;;;;;;0.80;0.80;;;;;;;;;;5069287;28;20027;-59
2021/03/09 16:48:46;;;;;;;0.35;0.35;;;;;;;;;;5065118;28;20078;-60
2021/03/09 16:51:12;;;;;;;3.55;3.22;;;;;;;;;;5055801;28;20041;-60
2021/03/09 16:53:38;;;;;;;1.20;1.20;;;;;;;;;;5060653;28;20028;-61
2021/03/09 16:56:04;;;;;;;5.75;2.70;;;;;;;;;;5062469;28;20025;-60
2021/03/09 16:58:30;;;;;;;0.98;0.98;;;;;;;;;;5055773;28;20042;-60
2021/03/09 17:00:57;;;;;;;3.33;1.65;;;;;;;;;;5050538;28;20032;-63
2021/03/09 17:03:23;;;;;;;0.15;0.15;;;;;;;;;;5050514;28;20486;-61
2021/03/09 17:05:49;;;;;;;1.27;0.73;;;;;;;;;;5063075;28;20036;-59
2021/03/09 17:08:15;;;;;;;0.52;0.52;;;;;;;;;;5060294;28;20032;-58
2021/03/09 17:10:41;;;;;;;1.55;1.45;;;;;;;;;;5053640;28;20029;-58
2021/03/09 17:13:07;;;;;;;6.13;4.10;;;;;;;;;;5047176;28;20075;-59
2021/03/09 17:15:33;;;;;;;1.25;1.25;;;;;;;;;;5053656;28;20064;-59
2021/03/09 17:17:59;;;;;;;0.95;0.95;;;;;;;;;;5062798;28;20100;-59
2021/03/09 17:20:25;;;;;;;0.82;0.75;;;;;;;;;;5057812;28;20031;-58
2021/03/09 17:22:52;;;;;;;0.30;0.30;;;;;;;;;;5053998;28;20559;-62
2021/03/09 17:25:18;;;;;;;0.17;0.17;;;;;;;;;;5061475;28;20066;-59
2021/03/09 17:27:44;;;;;;;1.88;1.25;;;;;;;;;;5053525;28;20033;-59
2021/03/09 17:30:10;;;;;;;0.45;0.45;;;;;;;;;;5053790;28;20037;-59
2021/03/09 17:32:36;;;;;;;0.85;0.85;;;;;;;;;;5058892;28;20341;-58
2021/03/09 17:35:03;;;;;;;0.10;0.10;;;;;;;;;;5054459;28;20032;-58
2021/03/09 17:37:29;;;;;;;0.10;0.10;;;;;;;;;;5052662;28;20044;-59
2021/03/09 17:39:55;;;;;;;1.00;0.63;;;;;;;;;;5056900;28;20063;-59
2021/03/09 17:42:21;;;;;;;7.32;6.75;;;;;;;;;;5059708;28;20028;-60
2021/03/09 17:44:51;;;;;;;1.45;1.45;;;;;;;;;;5057076;28;20039;-61
2021/03/09 17:47:21;;;;;;;0.10;0.10;;;;;;;;;;5047861;28;20025;-59
2021/03/09 17:49:47;;;;;;;0.10;0.10;;;;;;;;;;5047969;28;20033;-58
2021/03/09 17:52:15;;;;;;;0.10;0.10;;;;;;;;;;5050568;28;20033;-61
2021/03/09 17:54:41;;;;;;;0.10;0.10;;;;;;;;;;5047488;28;20013;-62
2021/03/09 17:57:08;;;;;;;0.10;0.10;;;;;;;;;;5062639;28;20477;-59
2021/03/09 17:59:34;;;;;;;0.50;0.50;;;;;;;;;;5052772;28;20056;-60
2021/03/09 18:02:01;;;;;;;0.10;0.10;;;;;;;;;;5059848;28;20025;-59
2021/03/09 18:04:27;;;;;;;0.10;0.10;;;;;;;;;;5052278;28;20052;-59
2021/03/09 18:06:53;;;;;;;6.40;6.07;;;;;;;;;;5049899;28;20021;-60
2021/03/09 18:09:19;;;;;;;0.10;0.10;;;;;;;;;;5052279;28;20063;-59
2021/03/09 18:11:45;;;;;;;0.17;0.17;;;;;;;;;;5052230;28;20033;-61
2021/03/09 18:14:11;;;;;;;0.10;0.10;;;;;;;;;;5054380;28;20053;-59
2021/03/09 18:16:37;;;;;;;0.20;0.20;;;;;;;;;;5064358;28;20024;-60
2021/03/09 18:19:04;;;;;;;0.25;0.25;;;;;;;;;;5065350;28;20032;-60
2021/03/09 18:21:34;;;;;;;1.38;1.38;;;;;;;;;;5066306;28;20020;-60
2021/03/09 18:24:00;;;;;;;0.10;0.10;;;;;;;;;;5066808;28;20032;-59
2021/03/09 18:26:26;;;;;;;0.20;0.20;;;;;;;;;;5065282;28;20100;-59
2021/03/09 18:28:52;;;;;;;0.20;0.20;;;;;;;;;;5066224;28;20460;-60
2021/03/09 18:31:19;;;;;;;0.10;0.10;;;;;;;;;;5066271;28;20047;-59
2021/03/09 18:33:45;;;;;;;0.10;0.10;;;;;;;;;;5066029;28;20037;-60
2021/03/09 18:36:14;;;;;;;0.17;0.17;;;;;;;;;;5067223;28;20071;-60
2021/03/09 18:38:41;;;;;;;0.10;0.10;;;;;;;;;;5064927;28;20042;-59
2021/03/09 18:41:07;;;;;;;0.32;0.32;;;;;;;;;;5062492;28;20048;-59
2021/03/09 18:43:33;;;;;;;0.95;0.95;;;;;;;;;;5064340;28;20399;-59
2021/03/09 18:45:59;;;;;;;2.28;0.73;;;;;;;;;;5064766;28;20445;-59
2021/03/09 18:48:25;;;;;;;0.10;0.10;;;;;;;;;;5068842;28;20063;-59
2021/03/09 18:50:51;;;;;;;0.15;0.15;;;;;;;;;;5065254;28;20052;-59
2021/03/09 18:53:17;;;;;;;0.35;0.35;;;;;;;;;;5066625;28;20115;-59
2021/03/09 18:55:44;;;;;;;0.30;0.30;;;;;;;;;;5066707;28;20024;-59
2021/03/09 18:58:10;;;;;;;0.20;0.20;;;;;;;;;;5070293;28;20021;-59
2021/03/09 19:00:36;;;;;;;0.10;0.10;;;;;;;;;;5072349;28;20091;-61
2021/03/09 19:03:03;;;;;;;0.20;0.20;;;;;;;;;;5071186;28;20028;-59
2021/03/09 19:05:29;;;;;;;0.17;0.17;;;;;;;;;;5069237;28;20039;-60
2021/03/09 19:07:55;;;;;;;0.20;0.20;;;;;;;;;;5069646;28;20416;-59
2021/03/09 19:10:21;;;;;;;0.10;0.10;;;;;;;;;;5069685;28;20031;-59
2021/03/09 19:12:47;;;;;;;1.90;1.80;;;;;;;;;;5069713;28;20075;-59
2021/03/09 19:15:13;;;;;;;0.70;0.70;;;;;;;;;;5072865;28;20040;-60
2021/03/09 19:17:40;;;;;;;0.17;0.17;;;;;;;;;;5070000;28;20032;-59
2021/03/09 19:20:06;;;;;;;0.10;0.10;;;;;;;;;;5068422;28;20032;-59
2021/03/09 19:22:33;;;;;;;0.75;0.75;;;;;;;;;;5068775;28;20033;-59
2021/03/09 19:24:59;;;;;;;0.15;0.15;;;;;;;;;;5067948;28;20021;-59
2021/03/09 19:27:25;;;;;;;0.10;0.10;;;;;;;;;;5072706;28;20031;-60
2021/03/09 19:29:51;;;;;;;0.10;0.10;;;;;;;;;;5071631;28;20131;-59
2021/03/09 19:32:17;;;;;;;5.05;4.85;;;;;;;;;;5070621;28;20082;-58
2021/03/09 19:34:44;;;;;;;1.63;1.60;;;;;;;;;;5070904;28;20012;-59
2021/03/09 19:37:10;;;;;;;0.10;0.10;;;;;;;;;;5070009;28;20148;-60
2021/03/09 19:39:36;;;;;;;0.20;0.20;;;;;;;;;;5069796;28;20043;-60
2021/03/09 19:42:02;;;;;;;4.30;4.10;;;;;;;;;;5069709;28;20052;-59
2021/03/09 19:44:30;;;;;;;1.45;1.45;;;;;;;;;;5062356;28;20055;-60
2021/03/09 19:46:57;;;;;;;0.10;0.10;;;;;;;;;;5074600;28;20024;-59
2021/03/09 19:49:23;;;;;;;0.20;0.20;;;;;;;;;;5073508;28;20024;-59
2021/03/09 19:51:49;;;;;;;0.15;0.15;;;;;;;;;;5072706;28;20035;-58
2021/03/09 19:54:15;;;;;;;4.68;4.32;;;;;;;;;;5069934;28;20032;-59
2021/03/09 19:56:41;;;;;;;0.10;0.10;;;;;;;;;;5070282;28;20032;-60
2021/03/09 19:59:08;;;;;;;0.10;0.10;;;;;;;;;;5066654;28;20304;-60
2021/03/09 20:01:34;;;;;;;0.10;0.10;;;;;;;;;;5066440;28;20440;-59
2021/03/09 20:04:00;;;;;;;0.20;0.20;;;;;;;;;;5066864;28;20027;-59
2021/03/09 20:06:27;;;;;;;0.20;0.20;;;;;;;;;;5068901;28;20089;-59
2021/03/09 20:08:53;;;;;;;0.10;0.10;;;;;;;;;;5068239;28;20052;-60
2021/03/09 20:11:19;;;;;;;0.10;0.10;;;;;;;;;;5067585;28;20032;-59
2021/03/09 20:13:45;;;;;;;0.10;0.10;;;;;;;;;;5068498;28;20501;-59
2021/03/09 20:16:11;;;;;;;0.10;0.10;;;;;;;;;;5067113;28;20042;-61
2021/03/09 20:18:37;;;;;;;0.10;0.10;;;;;;;;;;5068912;28;20058;-60
2021/03/09 20:21:03;;;;;;;1.20;1.20;;;;;;;;;;5068933;28;20029;-60
2021/03/09 20:23:30;;;;;;;0.10;0.10;;;;;;;;;;5068079;28;20040;-58
2021/03/09 20:25:59;;;;;;;0.17;0.17;;;;;;;;;;5068481;28;20528;-59
2021/03/09 20:28:25;;;;;;;0.20;0.20;;;;;;;;;;5068411;28;20029;-60
2021/03/09 20:30:52;;;;;;;0.20;0.20;;;;;;;;;;5068212;28;20414;-58
2021/03/09 20:33:18;;;;;;;0.10;0.10;;;;;;;;;;5068968;28;20115;-59
2021/03/09 20:35:44;;;;;;;1.35;1.27;;;;;;;;;;5065494;28;20017;-59
2021/03/09 20:38:11;;;;;;;3.67;3.03;;;;;;;;;;5065993;28;20024;-59
2021/03/09 20:40:37;;;;;;;0.20;0.20;;;;;;;;;;5065399;28;20043;-59
2021/03/09 20:43:03;;;;;;;0.30;0.30;;;;;;;;;;5067098;28;20031;-58